sensor_id;sensor_type;location;lat;lon;timestamp;pressure;altitude;pressure_sealevel;temperature;humidity
37368;BME280;23240;43.210;27.910;2022-12-07T00:00:26;101293.72;;;9.14;100.00
37368;BME280;23240;43.210;27.910;2022-12-07T00:02:52;101286.31;;;9.05;100.00
37368;BME280;23240;43.210;27.910;2022-12-07T00:05:17;101290.44;;;8.96;100.00
37368;BME280;23240;43.210;27.910;2022-12-07T00:07:43;101294.47;;;8.89;100.00
37368;BME280;23240;43.210;27.910;2022-12-07T00:10:08;101298.50;;;8.82;100.00
37368;BME280;23240;43.210;27.910;2022-12-07T00:12:34;101295.41;;;8.75;100.00
37368;BME280;23240;43.210;27.910;2022-12-07T00:14:59;101301.47;;;8.78;100.00
37368;BME280;23240;43.210;27.910;2022-12-07T00:17:25;101303.59;;;8.72;100.00
37368;BME280;23240;43.210;27.910;2022-12-07T00:19:50;101302.75;;;8.72;100.00
37368;BME280;23240;43.210;27.910;2022-12-07T00:22:16;101306.38;;;8.71;100.00
37368;BME280;23240;43.210;27.910;2022-12-07T00:24:41;101304.63;;;8.70;100.00
37368;BME280;23240;43.210;27.910;2022-12-07T00:27:07;101311.59;;;8.72;100.00
37368;BME280;23240;43.210;27.910;2022-12-07T00:29:32;101310.25;;;8.80;100.00
37368;BME280;23240;43.210;27.910;2022-12-07T00:31:58;101304.59;;;8.84;100.00
37368;BME280;23240;43.210;27.910;2022-12-07T00:34:23;101307.75;;;8.91;100.00
37368;BME280;23240;43.210;27.910;2022-12-07T00:36:49;101305.81;;;8.93;100.00
37368;BME280;23240;43.210;27.910;2022-12-07T00:39:15;101301.38;;;9.06;100.00
37368;BME280;23240;43.210;27.910;2022-12-07T00:41:41;101315.84;;;9.16;100.00
37368;BME280;23240;43.210;27.910;2022-12-07T00:44:07;101297.69;;;9.21;100.00
37368;BME280;23240;43.210;27.910;2022-12-07T00:46:32;101301.66;;;9.29;100.00
37368;BME280;23240;43.210;27.910;2022-12-07T00:48:58;101296.53;;;9.25;100.00
37368;BME280;23240;43.210;27.910;2022-12-07T00:51:24;101296.94;;;9.19;100.00
37368;BME280;23240;43.210;27.910;2022-12-07T00:53:51;101286.31;;;9.18;100.00
37368;BME280;23240;43.210;27.910;2022-12-07T00:56:25;101283.56;;;9.19;100.00
37368;BME280;23240;43.210;27.910;2022-12-07T00:59:02;101288.63;;;9.24;100.00
37368;BME280;23240;43.210;27.910;2022-12-07T01:01:34;101288.84;;;9.34;100.00
37368;BME280;23240;43.210;27.910;2022-12-07T01:04:00;101295.91;;;9.35;100.00
37368;BME280;23240;43.210;27.910;2022-12-07T01:06:26;101284.78;;;9.41;100.00
37368;BME280;23240;43.210;27.910;2022-12-07T01:08:52;101273.53;;;9.36;100.00
37368;BME280;23240;43.210;27.910;2022-12-07T01:11:20;101278.91;;;9.36;100.00
37368;BME280;23240;43.210;27.910;2022-12-07T01:13:47;101274.28;;;9.38;100.00
37368;BME280;23240;43.210;27.910;2022-12-07T01:16:15;101271.31;;;9.42;100.00
37368;BME280;23240;43.210;27.910;2022-12-07T01:18:41;101265.53;;;9.36;100.00
37368;BME280;23240;43.210;27.910;2022-12-07T01:21:11;101263.69;;;9.23;100.00
37368;BME280;23240;43.210;27.910;2022-12-07T01:23:38;101257.16;;;9.15;100.00
37368;BME280;23240;43.210;27.910;2022-12-07T01:26:11;101261.72;;;9.00;100.00
37368;BME280;23240;43.210;27.910;2022-12-07T01:28:37;101260.19;;;8.96;100.00
37368;BME280;23240;43.210;27.910;2022-12-07T01:31:07;101254.50;;;8.88;100.00
37368;BME280;23240;43.210;27.910;2022-12-07T01:33:36;101253.00;;;8.84;100.00
37368;BME280;23240;43.210;27.910;2022-12-07T01:36:06;101252.91;;;8.85;100.00
37368;BME280;23240;43.210;27.910;2022-12-07T01:38:32;101252.91;;;8.85;100.00
37368;BME280;23240;43.210;27.910;2022-12-07T01:40:59;101241.56;;;8.82;100.00
37368;BME280;23240;43.210;27.910;2022-12-07T01:43:27;101238.13;;;8.80;100.00
37368;BME280;23240;43.210;27.910;2022-12-07T01:45:53;101235.44;;;8.80;100.00
37368;BME280;23240;43.210;27.910;2022-12-07T01:48:24;101239.06;;;8.79;100.00
37368;BME280;23240;43.210;27.910;2022-12-07T01:50:51;101229.78;;;8.84;100.00
37368;BME280;23240;43.210;27.910;2022-12-07T01:53:18;101232.28;;;8.87;100.00
37368;BME280;23240;43.210;27.910;2022-12-07T01:55:46;101228.56;;;8.90;100.00
37368;BME280;23240;43.210;27.910;2022-12-07T01:58:13;101227.19;;;8.97;100.00
37368;BME280;23240;43.210;27.910;2022-12-07T02:00:41;101230.81;;;8.96;100.00
37368;BME280;23240;43.210;27.910;2022-12-07T02:03:31;101227.97;;;8.85;100.00
37368;BME280;23240;43.210;27.910;2022-12-07T02:05:59;101226.38;;;8.82;100.00
37368;BME280;23240;43.210;27.910;2022-12-07T02:08:25;101231.41;;;8.87;100.00
37368;BME280;23240;43.210;27.910;2022-12-07T02:10:51;101236.34;;;8.93;100.00
37368;BME280;23240;43.210;27.910;2022-12-07T02:13:21;101231.66;;;8.96;100.00
37368;BME280;23240;43.210;27.910;2022-12-07T02:16:13;101228.47;;;9.04;100.00
37368;BME280;23240;43.210;27.910;2022-12-07T02:27:56;101227.25;;;8.83;100.00
37368;BME280;23240;43.210;27.910;2022-12-07T02:30:26;101226.69;;;8.78;100.00
37368;BME280;23240;43.210;27.910;2022-12-07T02:35:30;101230.75;;;8.70;100.00
37368;BME280;23240;43.210;27.910;2022-12-07T02:38:08;101240.53;;;8.70;100.00
37368;BME280;23240;43.210;27.910;2022-12-07T02:40:41;101244.28;;;8.67;100.00
37368;BME280;23240;43.210;27.910;2022-12-07T02:43:27;101229.53;;;8.62;100.00
37368;BME280;23240;43.210;27.910;2022-12-07T02:45:56;101236.03;;;8.58;100.00
37368;BME280;23240;43.210;27.910;2022-12-07T02:48:24;101231.16;;;8.50;100.00
37368;BME280;23240;43.210;27.910;2022-12-07T02:50:52;101231.09;;;8.52;100.00
37368;BME280;23240;43.210;27.910;2022-12-07T02:53:47;101236.16;;;8.42;100.00
37368;BME280;23240;43.210;27.910;2022-12-07T03:07:32;101226.06;;;8.18;100.00
37368;BME280;23240;43.210;27.910;2022-12-07T03:10:14;101225.13;;;8.19;100.00
37368;BME280;23240;43.210;27.910;2022-12-07T03:18:22;101223.19;;;8.21;100.00
37368;BME280;23240;43.210;27.910;2022-12-07T03:20:51;101221.31;;;8.23;100.00
37368;BME280;23240;43.210;27.910;2022-12-07T03:23:18;101218.75;;;8.22;100.00
37368;BME280;23240;43.210;27.910;2022-12-07T03:25:48;101226.06;;;8.18;100.00
37368;BME280;23240;43.210;27.910;2022-12-07T03:28:18;101216.94;;;8.22;100.00
37368;BME280;23240;43.210;27.910;2022-12-07T03:30:49;101224.16;;;8.20;100.00
37368;BME280;23240;43.210;27.910;2022-12-07T03:36:03;101222.44;;;8.19;100.00
37368;BME280;23240;43.210;27.910;2022-12-07T03:38:40;101211.88;;;8.18;100.00
37368;BME280;23240;43.210;27.910;2022-12-07T03:41:29;101207.19;;;8.21;100.00
37368;BME280;23240;43.210;27.910;2022-12-07T03:43:56;101207.19;;;8.21;100.00
37368;BME280;23240;43.210;27.910;2022-12-07T03:49:06;101216.81;;;8.24;100.00
37368;BME280;23240;43.210;27.910;2022-12-07T03:51:43;101212.50;;;8.21;100.00
37368;BME280;23240;43.210;27.910;2022-12-07T03:54:19;101213.59;;;8.19;100.00
37368;BME280;23240;43.210;27.910;2022-12-07T03:56:49;101211.31;;;8.13;100.00
37368;BME280;23240;43.210;27.910;2022-12-07T03:59:15;101210.75;;;8.08;100.00
37368;BME280;23240;43.210;27.910;2022-12-07T04:01:52;101222.47;;;8.05;100.00
37368;BME280;23240;43.210;27.910;2022-12-07T04:04:18;101211.78;;;8.05;100.00
37368;BME280;23240;43.210;27.910;2022-12-07T04:06:43;101218.19;;;8.03;100.00
37368;BME280;23240;43.210;27.910;2022-12-07T04:09:09;101222.66;;;8.02;100.00
37368;BME280;23240;43.210;27.910;2022-12-07T04:11:34;101207.72;;;7.99;100.00
37368;BME280;23240;43.210;27.910;2022-12-07T04:14:00;101208.75;;;7.97;100.00
37368;BME280;23240;43.210;27.910;2022-12-07T04:16:55;101205.34;;;7.95;100.00
37368;BME280;23240;43.210;27.910;2022-12-07T04:19:29;101205.50;;;7.92;100.00
37368;BME280;23240;43.210;27.910;2022-12-07T04:21:56;101202.94;;;7.90;100.00
37368;BME280;23240;43.210;27.910;2022-12-07T04:24:22;101195.91;;;7.89;100.00
37368;BME280;23240;43.210;27.910;2022-12-07T04:26:49;101206.75;;;7.86;100.00
37368;BME280;23240;43.210;27.910;2022-12-07T04:29:15;101198.00;;;7.84;100.00
37368;BME280;23240;43.210;27.910;2022-12-07T04:31:42;101192.00;;;7.81;100.00
37368;BME280;23240;43.210;27.910;2022-12-07T04:34:08;101187.63;;;7.80;100.00
37368;BME280;23240;43.210;27.910;2022-12-07T04:36:34;101196.50;;;7.80;100.00
37368;BME280;23240;43.210;27.910;2022-12-07T04:39:00;101198.38;;;7.78;100.00
37368;BME280;23240;43.210;27.910;2022-12-07T04:41:26;101197.34;;;7.81;100.00
37368;BME280;23240;43.210;27.910;2022-12-07T04:43:59;101200.75;;;7.83;100.00
37368;BME280;23240;43.210;27.910;2022-12-07T04:46:26;101206.00;;;7.84;100.00
37368;BME280;23240;43.210;27.910;2022-12-07T04:48:52;101205.72;;;7.89;100.00
37368;BME280;23240;43.210;27.910;2022-12-07T04:51:20;101196.75;;;7.90;100.00
37368;BME280;23240;43.210;27.910;2022-12-07T04:53:47;101201.91;;;7.93;100.00
37368;BME280;23240;43.210;27.910;2022-12-07T04:56:13;101201.03;;;7.92;100.00
37368;BME280;23240;43.210;27.910;2022-12-07T04:58:39;101203.06;;;7.89;100.00
37368;BME280;23240;43.210;27.910;2022-12-07T05:01:04;101206.88;;;7.85;100.00
37368;BME280;23240;43.210;27.910;2022-12-07T05:03:30;101202.69;;;7.81;100.00
37368;BME280;23240;43.210;27.910;2022-12-07T05:05:55;101204.66;;;7.77;100.00
37368;BME280;23240;43.210;27.910;2022-12-07T05:08:21;101206.59;;;7.75;100.00
37368;BME280;23240;43.210;27.910;2022-12-07T05:10:48;101205.16;;;7.69;100.00
37368;BME280;23240;43.210;27.910;2022-12-07T05:13:14;101204.31;;;7.69;100.00
37368;BME280;23240;43.210;27.910;2022-12-07T05:15:40;101207.06;;;7.67;100.00
37368;BME280;23240;43.210;27.910;2022-12-07T05:18:06;101208.41;;;7.60;100.00
37368;BME280;23240;43.210;27.910;2022-12-07T05:20:31;101209.53;;;7.56;100.00
37368;BME280;23240;43.210;27.910;2022-12-07T05:22:57;101208.97;;;7.51;100.00
37368;BME280;23240;43.210;27.910;2022-12-07T05:25:23;101217.25;;;7.46;100.00
37368;BME280;23240;43.210;27.910;2022-12-07T05:27:49;101222.56;;;7.46;100.00
37368;BME280;23240;43.210;27.910;2022-12-07T05:30:15;101214.69;;;7.45;100.00
37368;BME280;23240;43.210;27.910;2022-12-07T05:32:40;101219.22;;;7.43;100.00
37368;BME280;23240;43.210;27.910;2022-12-07T05:35:06;101224.66;;;7.41;100.00
37368;BME280;23240;43.210;27.910;2022-12-07T05:37:32;101219.44;;;7.40;100.00
37368;BME280;23240;43.210;27.910;2022-12-07T05:39:57;101213.03;;;7.42;100.00
37368;BME280;23240;43.210;27.910;2022-12-07T05:42:22;101217.53;;;7.42;100.00
37368;BME280;23240;43.210;27.910;2022-12-07T05:44:48;101222.00;;;7.41;100.00
37368;BME280;23240;43.210;27.910;2022-12-07T05:47:15;101217.34;;;7.45;100.00
37368;BME280;23240;43.210;27.910;2022-12-07T05:49:41;101220.00;;;7.45;100.00
37368;BME280;23240;43.210;27.910;2022-12-07T05:52:06;101211.91;;;7.46;100.00
37368;BME280;23240;43.210;27.910;2022-12-07T05:54:33;101212.66;;;7.48;100.00
37368;BME280;23240;43.210;27.910;2022-12-07T05:56:58;101211.63;;;7.51;100.00
37368;BME280;23240;43.210;27.910;2022-12-07T05:59:24;101210.66;;;7.52;100.00
37368;BME280;23240;43.210;27.910;2022-12-07T06:04:21;101208.69;;;7.56;100.00
37368;BME280;23240;43.210;27.910;2022-12-07T06:06:47;101212.09;;;7.58;100.00
37368;BME280;23240;43.210;27.910;2022-12-07T06:09:13;101208.75;;;7.54;100.00
37368;BME280;23240;43.210;27.910;2022-12-07T06:11:39;101210.22;;;7.60;100.00
37368;BME280;23240;43.210;27.910;2022-12-07T06:14:24;101216.41;;;7.60;100.00
37368;BME280;23240;43.210;27.910;2022-12-07T06:16:50;101215.44;;;7.61;100.00
37368;BME280;23240;43.210;27.910;2022-12-07T06:19:16;101218.97;;;7.62;100.00
37368;BME280;23240;43.210;27.910;2022-12-07T06:21:42;101223.16;;;7.66;100.00
37368;BME280;23240;43.210;27.910;2022-12-07T06:24:11;101218.56;;;7.68;100.00
37368;BME280;23240;43.210;27.910;2022-12-07T06:26:36;101217.31;;;7.73;100.00
37368;BME280;23240;43.210;27.910;2022-12-07T06:29:02;101220.59;;;7.79;100.00
37368;BME280;23240;43.210;27.910;2022-12-07T06:31:27;101221.16;;;7.84;100.00
37368;BME280;23240;43.210;27.910;2022-12-07T06:34:07;101218.28;;;7.87;100.00
37368;BME280;23240;43.210;27.910;2022-12-07T06:36:34;101218.97;;;7.90;100.00
37368;BME280;23240;43.210;27.910;2022-12-07T06:39:00;101211.53;;;7.95;100.00
37368;BME280;23240;43.210;27.910;2022-12-07T06:41:25;101219.22;;;8.00;100.00
37368;BME280;23240;43.210;27.910;2022-12-07T06:43:51;101212.75;;;8.04;100.00
37368;BME280;23240;43.210;27.910;2022-12-07T06:46:16;101221.44;;;8.08;100.00
37368;BME280;23240;43.210;27.910;2022-12-07T06:48:42;101216.53;;;8.14;100.00
37368;BME280;23240;43.210;27.910;2022-12-07T06:51:09;101220.53;;;8.21;100.00
37368;BME280;23240;43.210;27.910;2022-12-07T06:53:35;101223.47;;;8.31;100.00
37368;BME280;23240;43.210;27.910;2022-12-07T06:56:01;101218.63;;;8.38;100.00
37368;BME280;23240;43.210;27.910;2022-12-07T06:58:27;101216.28;;;8.46;100.00
37368;BME280;23240;43.210;27.910;2022-12-07T07:00:52;101210.28;;;8.57;100.00
37368;BME280;23240;43.210;27.910;2022-12-07T07:03:18;101212.97;;;8.69;100.00
37368;BME280;23240;43.210;27.910;2022-12-07T07:05:44;101209.69;;;8.79;100.00
37368;BME280;23240;43.210;27.910;2022-12-07T07:08:11;101209.28;;;8.85;100.00
37368;BME280;23240;43.210;27.910;2022-12-07T07:10:37;101213.69;;;8.98;100.00
37368;BME280;23240;43.210;27.910;2022-12-07T07:13:03;101209.78;;;9.17;100.00
37368;BME280;23240;43.210;27.910;2022-12-07T07:15:29;101203.38;;;9.19;100.00
37368;BME280;23240;43.210;27.910;2022-12-07T07:17:54;101208.19;;;9.27;100.00
37368;BME280;23240;43.210;27.910;2022-12-07T07:20:20;101208.53;;;9.35;100.00
37368;BME280;23240;43.210;27.910;2022-12-07T07:22:46;101207.66;;;9.47;100.00
37368;BME280;23240;43.210;27.910;2022-12-07T07:25:11;101213.34;;;9.56;100.00
37368;BME280;23240;43.210;27.910;2022-12-07T07:27:37;101203.09;;;9.62;100.00
37368;BME280;23240;43.210;27.910;2022-12-07T07:30:04;101207.34;;;9.65;100.00
37368;BME280;23240;43.210;27.910;2022-12-07T07:32:30;101205.63;;;9.76;100.00
37368;BME280;23240;43.210;27.910;2022-12-07T07:34:55;101203.78;;;9.90;100.00
37368;BME280;23240;43.210;27.910;2022-12-07T07:37:21;101201.31;;;9.99;100.00
37368;BME280;23240;43.210;27.910;2022-12-07T07:39:46;101197.63;;;10.13;100.00
37368;BME280;23240;43.210;27.910;2022-12-07T07:42:12;101198.59;;;10.25;100.00
37368;BME280;23240;43.210;27.910;2022-12-07T07:44:37;101206.59;;;10.38;100.00
37368;BME280;23240;43.210;27.910;2022-12-07T07:47:03;101213.41;;;10.54;100.00
37368;BME280;23240;43.210;27.910;2022-12-07T07:49:29;101208.44;;;10.61;100.00
37368;BME280;23240;43.210;27.910;2022-12-07T07:51:55;101206.25;;;10.66;100.00
37368;BME280;23240;43.210;27.910;2022-12-07T07:54:20;101204.78;;;10.62;100.00
37368;BME280;23240;43.210;27.910;2022-12-07T07:56:46;101197.25;;;10.67;100.00
37368;BME280;23240;43.210;27.910;2022-12-07T07:59:11;101195.53;;;10.66;100.00
37368;BME280;23240;43.210;27.910;2022-12-07T08:01:37;101200.56;;;10.71;100.00
37368;BME280;23240;43.210;27.910;2022-12-07T08:04:02;101200.22;;;10.75;100.00
37368;BME280;23240;43.210;27.910;2022-12-07T08:06:28;101198.91;;;10.81;100.00
37368;BME280;23240;43.210;27.910;2022-12-07T08:08:53;101200.50;;;10.84;100.00
37368;BME280;23240;43.210;27.910;2022-12-07T08:11:19;101195.53;;;10.90;100.00
37368;BME280;23240;43.210;27.910;2022-12-07T08:13:47;101196.25;;;10.92;100.00
37368;BME280;23240;43.210;27.910;2022-12-07T08:16:13;101198.19;;;10.90;100.00
37368;BME280;23240;43.210;27.910;2022-12-07T08:18:40;101195.41;;;10.92;100.00
37368;BME280;23240;43.210;27.910;2022-12-07T08:21:09;101197.13;;;10.93;100.00
37368;BME280;23240;43.210;27.910;2022-12-07T08:23:35;101192.72;;;10.92;100.00
37368;BME280;23240;43.210;27.910;2022-12-07T08:26:03;101194.19;;;10.96;100.00
37368;BME280;23240;43.210;27.910;2022-12-07T08:28:29;101187.41;;;11.03;100.00
37368;BME280;23240;43.210;27.910;2022-12-07T08:31:03;101189.63;;;11.09;100.00
37368;BME280;23240;43.210;27.910;2022-12-07T08:33:29;101184.03;;;11.12;100.00
37368;BME280;23240;43.210;27.910;2022-12-07T08:35:55;101182.56;;;11.19;100.00
37368;BME280;23240;43.210;27.910;2022-12-07T08:38:25;101180.03;;;11.29;100.00
37368;BME280;23240;43.210;27.910;2022-12-07T08:40:58;101188.22;;;11.39;100.00
37368;BME280;23240;43.210;27.910;2022-12-07T08:43:24;101182.97;;;11.48;100.00
37368;BME280;23240;43.210;27.910;2022-12-07T08:45:54;101180.31;;;11.71;100.00
37368;BME280;23240;43.210;27.910;2022-12-07T08:48:26;101180.47;;;11.92;100.00
37368;BME280;23240;43.210;27.910;2022-12-07T08:50:51;101174.13;;;12.04;100.00
37368;BME280;23240;43.210;27.910;2022-12-07T08:53:17;101163.34;;;12.15;100.00
37368;BME280;23240;43.210;27.910;2022-12-07T08:55:44;101163.59;;;12.23;100.00
37368;BME280;23240;43.210;27.910;2022-12-07T08:58:11;101156.91;;;12.50;100.00
37368;BME280;23240;43.210;27.910;2022-12-07T09:00:37;101160.47;;;12.71;100.00
37368;BME280;23240;43.210;27.910;2022-12-07T09:03:02;101159.22;;;12.86;100.00
37368;BME280;23240;43.210;27.910;2022-12-07T09:05:28;101161.69;;;12.78;100.00
37368;BME280;23240;43.210;27.910;2022-12-07T09:07:56;101161.75;;;12.67;100.00
37368;BME280;23240;43.210;27.910;2022-12-07T09:10:24;101151.75;;;12.58;100.00
37368;BME280;23240;43.210;27.910;2022-12-07T09:12:49;101149.16;;;12.56;100.00
37368;BME280;23240;43.210;27.910;2022-12-07T09:15:15;101146.78;;;12.42;100.00
37368;BME280;23240;43.210;27.910;2022-12-07T09:17:40;101145.25;;;12.28;100.00
37368;BME280;23240;43.210;27.910;2022-12-07T09:20:06;101141.50;;;12.20;100.00
37368;BME280;23240;43.210;27.910;2022-12-07T09:22:32;101141.50;;;12.20;100.00
37368;BME280;23240;43.210;27.910;2022-12-07T09:24:58;101131.59;;;12.20;100.00
37368;BME280;23240;43.210;27.910;2022-12-07T09:27:24;101128.69;;;12.23;100.00
37368;BME280;23240;43.210;27.910;2022-12-07T09:29:50;101126.47;;;12.17;100.00
37368;BME280;23240;43.210;27.910;2022-12-07T09:32:15;101125.47;;;12.18;100.00
37368;BME280;23240;43.210;27.910;2022-12-07T09:34:41;101121.25;;;12.16;100.00
37368;BME280;23240;43.210;27.910;2022-12-07T09:37:07;101118.47;;;11.95;100.00
37368;BME280;23240;43.210;27.910;2022-12-07T09:39:32;101119.56;;;11.81;100.00
37368;BME280;23240;43.210;27.910;2022-12-07T09:41:59;101117.53;;;11.85;100.00
37368;BME280;23240;43.210;27.910;2022-12-07T09:44:26;101116.53;;;11.86;100.00
37368;BME280;23240;43.210;27.910;2022-12-07T09:46:52;101121.91;;;11.86;100.00
37368;BME280;23240;43.210;27.910;2022-12-07T09:49:20;101112.63;;;11.90;100.00
37368;BME280;23240;43.210;27.910;2022-12-07T09:52:01;101113.00;;;11.85;100.00
37368;BME280;23240;43.210;27.910;2022-12-07T09:54:28;101113.84;;;11.86;100.00
37368;BME280;23240;43.210;27.910;2022-12-07T09:56:55;101103.00;;;11.87;100.00
37368;BME280;23240;43.210;27.910;2022-12-07T09:59:20;101102.84;;;11.89;100.00
37368;BME280;23240;43.210;27.910;2022-12-07T10:01:49;101106.28;;;11.91;100.00
37368;BME280;23240;43.210;27.910;2022-12-07T10:04:19;101103.59;;;11.91;100.00
37368;BME280;23240;43.210;27.910;2022-12-07T10:06:46;101099.56;;;11.74;100.00
37368;BME280;23240;43.210;27.910;2022-12-07T10:09:15;101101.91;;;11.56;100.00
37368;BME280;23240;43.210;27.910;2022-12-07T10:12:10;101094.56;;;11.58;100.00
37368;BME280;23240;43.210;27.910;2022-12-07T10:15:00;101093.09;;;11.76;100.00
37368;BME280;23240;43.210;27.910;2022-12-07T10:20:24;101088.88;;;12.17;100.00
37368;BME280;23240;43.210;27.910;2022-12-07T10:25:32;101079.31;;;12.56;100.00
37368;BME280;23240;43.210;27.910;2022-12-07T10:28:17;101071.22;;;12.68;100.00
37368;BME280;23240;43.210;27.910;2022-12-07T10:38:53;101064.75;;;13.22;100.00
37368;BME280;23240;43.210;27.910;2022-12-07T10:41:23;101057.31;;;13.14;100.00
37368;BME280;23240;43.210;27.910;2022-12-07T10:43:55;101062.94;;;13.01;100.00
37368;BME280;23240;43.210;27.910;2022-12-07T10:46:26;101054.00;;;13.01;100.00
37368;BME280;23240;43.210;27.910;2022-12-07T10:55:27;101049.53;;;13.11;100.00
37368;BME280;23240;43.210;27.910;2022-12-07T11:00:35;101041.88;;;13.37;100.00
37368;BME280;23240;43.210;27.910;2022-12-07T11:03:51;101039.03;;;13.38;100.00
37368;BME280;23240;43.210;27.910;2022-12-07T11:30:54;101007.94;;;13.55;100.00
37368;BME280;23240;43.210;27.910;2022-12-07T11:33:48;101012.75;;;13.52;100.00
37368;BME280;23240;43.210;27.910;2022-12-07T11:36:58;101000.22;;;13.31;100.00
37368;BME280;23240;43.210;27.910;2022-12-07T11:39:26;101002.13;;;13.20;100.00
37368;BME280;23240;43.210;27.910;2022-12-07T11:42:16;101003.66;;;13.12;100.00
37368;BME280;23240;43.210;27.910;2022-12-07T11:44:55;101000.63;;;12.96;100.00
37368;BME280;23240;43.210;27.910;2022-12-07T12:06:41;100990.97;;;12.63;100.00
37368;BME280;23240;43.210;27.910;2022-12-07T12:20:25;100985.91;;;13.00;100.00
37368;BME280;23240;43.210;27.910;2022-12-07T12:23:19;100972.25;;;13.13;100.00
37368;BME280;23240;43.210;27.910;2022-12-07T12:25:47;100975.44;;;13.28;100.00
37368;BME280;23240;43.210;27.910;2022-12-07T12:33:53;100969.00;;;13.19;100.00
37368;BME280;23240;43.210;27.910;2022-12-07T12:36:28;100967.91;;;13.22;100.00
37368;BME280;23240;43.210;27.910;2022-12-07T12:47:02;100967.81;;;13.02;100.00
37368;BME280;23240;43.210;27.910;2022-12-07T12:51:54;100964.97;;;13.04;100.00
37368;BME280;23240;43.210;27.910;2022-12-07T12:54:28;100960.78;;;13.11;100.00
37368;BME280;23240;43.210;27.910;2022-12-07T12:57:12;100963.91;;;13.16;100.00
37368;BME280;23240;43.210;27.910;2022-12-07T13:03:16;100966.72;;;13.15;100.00
37368;BME280;23240;43.210;27.910;2022-12-07T13:15:56;100955.28;;;12.82;100.00
37368;BME280;23240;43.210;27.910;2022-12-07T13:18:37;100956.66;;;12.76;100.00
37368;BME280;23240;43.210;27.910;2022-12-07T13:29:16;100946.34;;;12.72;100.00
37368;BME280;23240;43.210;27.910;2022-12-07T13:31:50;100944.75;;;12.69;100.00
37368;BME280;23240;43.210;27.910;2022-12-07T13:34:37;100943.63;;;12.72;100.00
37368;BME280;23240;43.210;27.910;2022-12-07T13:37:15;100945.44;;;12.71;100.00
37368;BME280;23240;43.210;27.910;2022-12-07T13:39:51;100947.88;;;12.74;100.00
37368;BME280;23240;43.210;27.910;2022-12-07T13:42:24;100951.56;;;12.73;100.00
37368;BME280;23240;43.210;27.910;2022-12-07T13:44:50;100945.75;;;12.68;100.00
37368;BME280;23240;43.210;27.910;2022-12-07T13:47:32;100945.53;;;12.60;100.00
37368;BME280;23240;43.210;27.910;2022-12-07T13:50:01;100940.72;;;12.54;100.00
37368;BME280;23240;43.210;27.910;2022-12-07T13:52:29;100948.56;;;12.46;100.00
37368;BME280;23240;43.210;27.910;2022-12-07T13:57:28;100954.03;;;12.34;100.00
37368;BME280;23240;43.210;27.910;2022-12-07T13:59:56;100960.88;;;12.27;100.00
37368;BME280;23240;43.210;27.910;2022-12-07T14:02:29;100964.25;;;12.20;100.00
37368;BME280;23240;43.210;27.910;2022-12-07T14:05:13;100966.72;;;12.12;100.00
37368;BME280;23240;43.210;27.910;2022-12-07T14:07:49;100966.41;;;12.05;100.00
37368;BME280;23240;43.210;27.910;2022-12-07T14:10:30;100964.72;;;11.93;100.00
37368;BME280;23240;43.210;27.910;2022-12-07T14:12:57;100974.41;;;11.84;100.00
37368;BME280;23240;43.210;27.910;2022-12-07T14:15:32;100967.69;;;11.78;100.00
37368;BME280;23240;43.210;27.910;2022-12-07T14:17:59;100971.00;;;11.71;100.00
37368;BME280;23240;43.210;27.910;2022-12-07T14:20:39;100969.66;;;11.65;100.00
37368;BME280;23240;43.210;27.910;2022-12-07T14:23:24;100968.25;;;11.61;100.00
37368;BME280;23240;43.210;27.910;2022-12-07T14:25:53;100968.72;;;11.55;100.00
37368;BME280;23240;43.210;27.910;2022-12-07T14:30:51;100973.88;;;11.47;100.00
37368;BME280;23240;43.210;27.910;2022-12-07T14:33:17;100975.09;;;11.43;100.00
37368;BME280;23240;43.210;27.910;2022-12-07T14:35:46;100963.91;;;11.38;100.00
37368;BME280;23240;43.210;27.910;2022-12-07T14:38:11;100966.59;;;11.38;100.00
37368;BME280;23240;43.210;27.910;2022-12-07T14:40:38;100959.75;;;11.33;100.00
37368;BME280;23240;43.210;27.910;2022-12-07T14:43:12;100965.34;;;11.30;100.00
37368;BME280;23240;43.210;27.910;2022-12-07T14:45:39;100962.69;;;11.30;100.00
37368;BME280;23240;43.210;27.910;2022-12-07T14:48:06;100955.84;;;11.26;100.00
37368;BME280;23240;43.210;27.910;2022-12-07T14:50:38;100957.81;;;11.24;100.00
37368;BME280;23240;43.210;27.910;2022-12-07T14:53:13;100961.63;;;11.22;100.00
37368;BME280;23240;43.210;27.910;2022-12-07T14:55:39;100965.16;;;11.22;100.00
37368;BME280;23240;43.210;27.910;2022-12-07T14:58:04;100965.38;;;11.19;100.00
37368;BME280;23240;43.210;27.910;2022-12-07T15:00:30;100969.03;;;11.18;100.00
37368;BME280;23240;43.210;27.910;2022-12-07T15:02:56;100969.16;;;11.17;100.00
37368;BME280;23240;43.210;27.910;2022-12-07T15:05:22;100973.66;;;11.16;100.00
37368;BME280;23240;43.210;27.910;2022-12-07T15:07:49;100980.75;;;11.17;100.00
37368;BME280;23240;43.210;27.910;2022-12-07T15:10:23;100972.81;;;11.16;100.00
37368;BME280;23240;43.210;27.910;2022-12-07T15:12:50;100983.44;;;11.17;100.00
37368;BME280;23240;43.210;27.910;2022-12-07T15:15:16;100983.66;;;11.14;100.00
37368;BME280;23240;43.210;27.910;2022-12-07T15:17:42;100984.66;;;11.13;100.00
37368;BME280;23240;43.210;27.910;2022-12-07T15:20:11;100989.41;;;11.10;100.00
37368;BME280;23240;43.210;27.910;2022-12-07T15:22:38;100989.41;;;11.10;100.00